createdAt,value
2023-03-23T16:00:10.305Z,1.50
2023-03-23T16:03:00.219Z,1.40
2023-03-23T16:05:47.408Z,1.40
2023-03-23T16:08:41.012Z,1.50
2023-03-23T16:11:29.860Z,1.53
2023-03-23T16:14:17.028Z,1.60
2023-03-23T16:17:03.995Z,1.40
2023-03-23T16:19:51.420Z,1.30
2023-03-23T16:22:38.235Z,1.63
2023-03-23T16:25:27.243Z,1.60
2023-03-23T16:28:15.513Z,1.60
2023-03-23T16:31:02.869Z,1.50
2023-03-23T16:33:49.503Z,1.60
2023-03-23T16:36:36.922Z,1.30
2023-03-23T16:39:24.196Z,1.10
2023-03-23T16:42:13.003Z,1.57
2023-03-23T16:44:59.801Z,1.77
2023-03-23T16:47:48.547Z,1.70
2023-03-23T16:50:36.780Z,1.63
2023-03-23T16:53:24.886Z,1.80
2023-03-23T16:56:11.771Z,2.03
2023-03-23T16:59:02.398Z,1.53
2023-03-23T17:01:49.584Z,1.80
2023-03-23T17:04:37.338Z,1.67
2023-03-23T17:07:24.005Z,1.50
2023-03-23T17:10:13.200Z,1.50
2023-03-23T17:13:00.386Z,1.63
2023-03-23T17:15:49.354Z,1.50
2023-03-23T17:18:36.694Z,1.77
2023-03-23T17:21:26.024Z,1.40
2023-03-23T17:24:12.950Z,1.37
2023-03-23T17:27:00.235Z,1.60
2023-03-23T17:29:47.351Z,1.63
2023-03-23T17:32:36.761Z,1.33
2023-03-23T17:35:24.013Z,1.47
2023-03-23T17:38:11.267Z,1.30
2023-03-23T17:40:59.051Z,1.50
2023-03-23T17:43:45.841Z,1.50
2023-03-23T17:46:33.122Z,1.77
2023-03-23T17:49:21.522Z,1.60
2023-03-23T17:52:08.576Z,1.60
2023-03-23T17:54:55.998Z,1.40
2023-03-23T17:57:44.805Z,1.63
2023-03-23T18:00:32.518Z,1.53
2023-03-23T18:03:20.112Z,1.40
2023-03-23T18:06:10.637Z,1.40
2023-03-23T18:08:57.537Z,1.30
2023-03-23T18:11:44.564Z,1.47
2023-03-23T18:14:31.725Z,1.70
2023-03-23T18:17:18.657Z,1.50
2023-03-23T18:20:08.264Z,1.37
2023-03-23T18:22:57.417Z,1.60
2023-03-23T18:25:44.742Z,1.37
2023-03-23T18:28:31.962Z,1.87
2023-03-23T18:31:21.196Z,1.50
2023-03-23T18:34:09.544Z,1.60
2023-03-23T18:36:56.588Z,1.67
2023-03-23T18:39:45.008Z,2.07
2023-03-23T18:42:31.802Z,1.80
2023-03-23T18:46:00.754Z,1.40
2023-03-23T18:48:47.607Z,1.50
2023-03-23T18:51:34.629Z,1.70
2023-03-23T18:54:21.813Z,1.23
2023-03-23T18:57:10.436Z,1.43
2023-03-23T18:59:57.608Z,1.90
2023-03-23T19:02:44.753Z,2.00
2023-03-23T19:05:40.727Z,2.47
2023-03-23T19:08:29.727Z,3.00
2023-03-23T19:11:17.489Z,2.57
2023-03-23T19:14:06.392Z,2.80
2023-03-23T19:16:53.606Z,2.07
2023-03-23T19:19:43.221Z,2.00
2023-03-23T19:22:30.690Z,2.30
2023-03-23T19:25:17.955Z,2.37
2023-03-23T19:30:59.030Z,1.90
2023-03-23T19:33:46.506Z,2.13
2023-03-23T19:36:34.906Z,1.80
2023-03-23T19:39:22.302Z,2.13
2023-03-23T19:42:09.811Z,1.97
2023-03-23T19:44:56.684Z,2.20
2023-03-23T19:52:07.264Z,1.83
2023-03-23T19:54:59.263Z,1.50
2023-03-23T19:57:48.149Z,2.00
2023-03-23T20:00:36.098Z,1.60
2023-03-23T20:03:25.943Z,1.83
2023-03-23T20:06:15.284Z,1.97
2023-03-23T20:09:05.207Z,1.90
2023-03-23T20:11:57.481Z,1.63
2023-03-23T20:14:45.519Z,1.40
2023-03-23T20:17:33.371Z,1.93
2023-03-23T20:20:21.063Z,1.90
2023-03-23T20:24:13.021Z,1.63
2023-03-23T20:27:03.938Z,1.30
2023-03-23T20:29:52.416Z,1.53
2023-03-23T20:32:40.866Z,1.83
2023-03-23T20:35:29.431Z,1.37
2023-03-23T20:38:18.484Z,1.20
2023-03-23T20:41:11.439Z,1.70
2023-03-23T20:44:00.294Z,1.57
2023-03-23T20:46:48.554Z,1.43
2023-03-23T20:49:38.525Z,1.70
2023-03-23T20:52:27.278Z,1.70
2023-03-23T20:55:15.426Z,1.67
2023-03-23T20:58:02.674Z,1.70
2023-03-23T21:00:57.238Z,1.70
2023-03-23T21:03:44.752Z,1.70
2023-03-23T21:06:34.175Z,1.43
2023-03-23T21:09:21.424Z,1.57
2023-03-23T21:12:09.504Z,1.60
2023-03-23T21:14:56.406Z,1.63
2023-03-23T21:17:45.125Z,1.67
2023-03-23T21:20:32.488Z,1.63
2023-03-23T21:23:20.093Z,1.40
2023-03-23T21:26:10.917Z,1.77
2023-03-23T21:29:01.032Z,1.70
2023-03-23T21:31:57.663Z,1.40
2023-03-23T21:34:53.947Z,1.33
2023-03-23T21:37:41.029Z,1.37
2023-03-23T21:40:28.414Z,1.50
2023-03-23T21:43:17.042Z,1.70
2023-03-23T21:46:08.962Z,1.60
2023-03-23T21:48:56.137Z,1.60
2023-03-23T21:51:44.418Z,1.50
2023-03-23T21:54:34.435Z,1.60
2023-03-23T21:57:22.133Z,2.03
2023-03-23T22:00:15.120Z,1.70
2023-03-23T22:03:02.928Z,1.73
2023-03-23T22:05:54.655Z,1.80
2023-03-23T22:08:45.041Z,1.60
2023-03-23T22:11:33.436Z,1.60
2023-03-23T22:14:21.048Z,1.90
2023-03-23T22:17:09.072Z,1.70
2023-03-23T22:19:57.550Z,1.60
2023-03-23T22:22:45.838Z,1.50
2023-03-23T22:25:36.298Z,2.23
2023-03-23T22:28:26.445Z,1.73
2023-03-23T22:31:17.684Z,1.70
2023-03-23T22:34:09.891Z,1.37
2023-03-23T22:36:57.512Z,1.60
2023-03-23T22:39:44.696Z,2.00
2023-03-23T22:42:33.053Z,1.90
2023-03-23T22:45:24.379Z,1.73
2023-03-23T22:48:12.361Z,1.93
2023-03-23T22:50:59.740Z,2.07
2023-03-23T22:53:46.935Z,2.23
2023-03-23T22:56:38.516Z,1.90
2023-03-23T22:59:27.557Z,2.10
2023-03-23T23:02:14.748Z,1.93
2023-03-23T23:05:02.109Z,2.00
2023-03-23T23:07:49.442Z,1.80
2023-03-23T23:10:38.599Z,2.17
2023-03-23T23:13:26.214Z,2.30
2023-03-23T23:16:17.353Z,2.17
2023-03-23T23:19:04.974Z,1.87
2023-03-23T23:21:52.391Z,1.27
2023-03-23T23:24:40.731Z,1.70
2023-03-23T23:27:28.135Z,1.93
2023-03-23T23:30:15.900Z,1.70
2023-03-23T23:33:05.342Z,1.70
2023-03-23T23:35:52.514Z,1.47
2023-03-23T23:38:40.015Z,1.40
2023-03-23T23:41:27.541Z,1.60
2023-03-23T23:44:14.700Z,1.80
2023-03-23T23:47:02.649Z,1.60
2023-03-23T23:49:51.599Z,1.30
2023-03-23T23:52:40.032Z,1.67
2023-03-23T23:55:27.553Z,1.60
2023-03-23T23:58:14.564Z,1.40
